Airfield :
LOGIN :

Register | Disclaimer

   EN    FR    IT 

 










Legend :    VFR   Marginal VFR   IFR   Intensive IFR   Very Intensive IFR
Visi :
Ceiling :
>= 8 km
>= 3000ft
5 to 8 km
1000 to 3000 ft
1500m to 5 km
500 to 1000 ft
800 to 1500m
200 to 500 ft
< 800m
< 200 ft
Symbols :   Thunderstorms  Fog  Heavy snow  Heavy precipitations  Wind > 20 kt
SIGMETs :     Misc.  Thunderstorms  Icing  Turbulence  Mountain Waves  Volcanic Ashes






- Airport Elevation : 333 ft


LIPL - Ghedi Brescia (Mil)

CURRENT METAR :
  • 191555Z 27010KT 5000 BR FEW030 11/06 Q1016 RMK FEW VIS MIN 5000 WIND THR31 28012KT WIND THR13 27010KT WHT

EXPIRED METARs :
  • 191455Z 28009KT 6000 FEW025 12/07 Q1017 RMK FEW VIS MIN 6000 WIND THR31 27011KT WIND THR13 28010KT WHT
  • 191355Z 28010KT 6000 FEW015 12/07 Q1017 RMK FEW VIS MIN 6000 WIND THR31 28010KT WIND THR13 27011KT WHT
  • 191322Z 27008KT 6000 FEW015 12/07 Q1019 RMK FEW VIS MIN 6000 WIND THR31 26010KT WIND THR13 27009KT WHT

TAF TAF LIPL
Valid from the 19 at 15:00 until the 20 at 00:00 UTC


191400Z 1915/1924 28010KT 8000 FEW030



MET'MAP, your aeronautical weather chart ! - Copyright ORBIFLY December 2007 - Disclaimer

ORBIFLY MET'MAP TEAM :

Programming & Development : Alexandra Zaïnal
Concept & original design : Baudouin d'Aumeries
Assistance for programming : Marc-Olivier Méhu
Technical & hardware support : Manuel Goepfert

Contact : metmap@orbifly.com




SOURCES & CREDITS :

   NOAA